Time;durP1;ratioP1;P1;durP2;ratioP2;P2;SDS_P1;SDS_P2;PMS_P1;PMS_P2;Temp;Humidity;BMP_temperature;BMP_pressure;BME280_temperature;BME280_humidity;BME280_pressure;Samples;Min_cycle;Max_cycle;Signal;HPM_P1;HPM_P2
2022/01/12 00:00:19;;;;;;;48.85;22.20;;;;;;;1.87;94.74;103430.25;2094211;28;46232;-75
2022/01/12 00:01:21;;;;;;;52.00;24.90;;;;;;;1.87;95.06;103435.53;2087319;28;45483;-75
2022/01/12 00:02:23;;;;;;;50.90;24.58;;;;;;;1.89;94.75;103438.25;2087112;28;46190;-75
2022/01/12 00:03:25;;;;;;;46.35;23.15;;;;;;;1.89;94.81;103438.25;2087822;28;43486;-76
2022/01/12 00:04:27;;;;;;;49.47;23.45;;;;;;;1.89;94.89;103444.44;2087334;28;45715;-75
2022/01/12 00:05:29;;;;;;;59.10;26.13;;;;;;;1.88;94.85;103450.56;2087234;28;44409;-75
2022/01/12 00:06:31;;;;;;;49.17;23.15;;;;;;;1.87;95.11;103443.44;2086965;28;43856;-76
2022/01/12 00:07:32;;;;;;;54.05;23.92;;;;;;;1.89;95.29;103452.38;2087932;28;32679;-76
2022/01/12 00:08:34;;;;;;;55.33;25.23;;;;;;;1.89;95.19;103444.44;2087399;28;43233;-76
2022/01/12 00:09:36;;;;;;;48.45;23.05;;;;;;;1.89;95.21;103447.06;2086752;28;45929;-75
2022/01/12 00:10:39;;;;;;;49.88;25.83;;;;;;;1.91;95.33;103444.53;2094535;28;43257;-75
2022/01/12 00:11:41;;;;;;;60.58;25.98;;;;;;;1.90;94.92;103443.63;2095441;28;43961;-76
2022/01/12 00:12:43;;;;;;;54.80;25.35;;;;;;;1.88;95.19;103440.00;2087509;28;20042;-76
2022/01/12 00:13:44;;;;;;;53.97;27.27;;;;;;;1.89;95.21;103446.19;2095848;28;43770;-76
2022/01/12 00:14:46;;;;;;;60.80;26.63;;;;;;;1.90;95.52;103448.91;2095253;28;44187;-76
2022/01/12 00:15:48;;;;;;;50.38;25.83;;;;;;;1.88;95.28;103440.00;2086724;28;45135;-75
2022/01/12 00:16:51;;;;;;;61.35;27.13;;;;;;;1.90;95.57;103447.97;2087490;28;43905;-76
2022/01/12 00:17:53;;;;;;;52.92;26.73;;;;;;;1.89;95.63;103444.44;2087299;28;43320;-76
2022/01/12 00:18:55;;;;;;;52.70;26.27;;;;;;;1.89;95.73;103438.25;2095674;28;33659;-76
2022/01/12 00:20:01;;;;;;;55.95;25.27;;;;;;;1.89;95.55;103444.44;2094858;28;45249;-76
2022/01/12 00:21:03;;;;;;;60.53;27.10;;;;;;;1.89;95.71;103441.78;2094641;28;45357;-76
2022/01/12 00:22:05;;;;;;;52.97;27.02;;;;;;;1.90;95.47;103448.91;2094887;28;40947;-76
2022/01/12 00:23:07;;;;;;;53.90;26.83;;;;;;;1.91;95.43;103448.06;2094899;28;45840;-75
2022/01/12 00:24:08;;;;;;;57.00;27.83;;;;;;;1.90;96.00;103446.28;2102798;28;45893;-76
2022/01/12 00:33:12;;;;;;;57.95;27.73;;;;;;;1.91;96.12;103444.53;2095684;28;45543;-76
2022/01/12 00:34:14;;;;;;;59.22;27.83;;;;;;;1.90;96.07;103442.69;2083589;28;20212;-76
2022/01/12 00:35:17;;;;;;;63.28;29.30;;;;;;;1.90;96.33;103446.28;2088389;28;20037;-76
2022/01/12 00:36:20;;;;;;;60.53;28.50;;;;;;;1.90;95.89;103447.97;2103366;28;44364;-75
2022/01/12 00:37:24;;;;;;;64.05;27.58;;;;;;;1.90;96.41;103446.28;2095471;28;20033;-75
2022/01/12 00:38:29;;;;;;;60.33;28.45;;;;;;;1.90;96.15;103446.28;2094963;28;45374;-76
2022/01/12 00:39:35;;;;;;;56.60;27.60;;;;;;;1.93;95.97;103464.00;2088731;28;20033;-76
2022/01/12 00:40:44;;;;;;;60.67;28.98;;;;;;;1.93;96.24;103463.09;2087092;28;43668;-75
2022/01/12 00:41:47;;;;;;;61.92;29.08;;;;;;;1.94;95.95;103464.91;2087460;28;46493;-75
2022/01/12 00:42:48;;;;;;;60.00;27.65;;;;;;;1.92;96.38;103462.22;2087752;28;22003;-76
2022/01/12 00:43:57;;;;;;;66.40;29.75;;;;;;;1.94;96.13;103472.81;2095367;28;44760;-76
2022/01/12 00:45:01;;;;;;;66.70;29.92;;;;;;;1.93;96.38;103469.28;2086336;28;44640;-75
2022/01/12 00:46:03;;;;;;;65.18;30.70;;;;;;;1.95;96.62;103475.56;2094809;28;44266;-76
2022/01/12 00:47:06;;;;;;;61.25;30.85;;;;;;;1.92;96.25;103475.41;2087132;28;20152;-76
2022/01/12 00:48:09;;;;;;;63.88;29.85;;;;;;;1.93;96.32;103477.22;2087749;28;20042;-76
2022/01/12 00:49:11;;;;;;;57.65;27.02;;;;;;;1.93;96.55;103476.31;2087045;28;25066;-76
2022/01/12 00:50:13;;;;;;;71.30;31.92;;;;;;;1.95;96.16;103482.59;2087021;28;44371;-75
2022/01/12 00:51:14;;;;;;;70.53;30.73;;;;;;;1.94;96.27;103481.69;2094851;28;43877;-76
2022/01/12 00:52:16;;;;;;;70.00;30.35;;;;;;;1.94;96.75;103483.41;2094804;28;45134;-76
2022/01/12 00:53:21;;;;;;;65.68;28.00;;;;;;;1.95;96.64;103483.47;2079973;28;20974;-75
2022/01/12 00:54:25;;;;;;;70.20;30.88;;;;;;;1.94;96.48;103480.75;2086393;28;43306;-76
2022/01/12 00:55:27;;;;;;;67.20;30.92;;;;;;;1.93;96.50;103479.84;2086730;28;45934;-76
2022/01/12 00:56:29;;;;;;;68.50;32.70;;;;;;;1.94;96.50;103480.75;2086748;28;20087;-76
2022/01/12 00:57:31;;;;;;;56.05;26.08;;;;;;;1.96;96.71;103473.84;2079310;28;20089;-76
2022/01/12 00:58:36;;;;;;;64.60;29.70;;;;;;;1.96;96.62;103476.47;2095032;28;36798;-76
2022/01/12 00:59:38;;;;;;;72.97;33.47;;;;;;;1.93;96.77;103471.03;2095263;28;20890;-76
2022/01/12 01:00:43;;;;;;;73.57;33.17;;;;;;;1.93;96.61;103473.66;2095821;28;45770;-76
2022/01/12 01:01:45;;;;;;;71.43;29.58;;;;;;;1.93;96.92;103473.66;2095047;28;45287;-76
2022/01/12 01:02:50;;;;;;;68.65;32.03;;;;;;;1.93;97.25;103463.09;2087399;28;20041;-76
2022/01/12 01:03:53;;;;;;;70.32;32.63;;;;;;;1.93;97.24;103476.31;2087069;28;36380;-76
2022/01/12 01:04:56;;;;;;;65.90;30.83;;;;;;;1.94;97.08;103464.91;2079443;28;20981;-76
2022/01/12 01:05:59;;;;;;;66.85;32.58;;;;;;;1.94;97.14;103475.47;2087421;28;20912;-76
2022/01/12 01:07:01;;;;;;;67.30;31.83;;;;;;;1.95;97.26;103477.31;2095619;28;24824;-76
2022/01/12 01:08:04;;;;;;;71.40;32.10;;;;;;;1.93;97.15;103485.13;2087167;28;20045;-76
2022/01/12 01:09:06;;;;;;;66.15;30.40;;;;;;;1.93;97.20;103479.84;2095582;28;20195;-75
2022/01/12 01:10:13;;;;;;;69.25;31.05;;;;;;;1.93;97.23;103478.97;2103716;28;20032;-76
2022/01/12 01:11:19;;;;;;;67.13;30.80;;;;;;;1.93;97.46;103479.84;2087030;28;20045;-76
2022/01/12 01:12:21;;;;;;;77.75;34.72;;;;;;;1.94;97.43;103478.09;2096250;28;20951;-76
2022/01/12 01:13:33;;;;;;;66.30;29.30;;;;;;;1.95;97.13;103482.59;2094857;28;40311;-76
2022/01/12 01:14:59;;;;;;;69.15;31.13;;;;;;;1.97;96.98;103480.91;2088582;28;41512;-76
2022/01/12 01:16:11;;;;;;;74.93;31.02;;;;;;;1.96;96.89;103485.31;2086075;28;20037;-76
2022/01/12 01:25:32;;;;;;;65.53;28.88;;;;;;;1.94;97.31;103475.47;2092465;28;40396;-76
2022/01/12 01:26:35;;;;;;;78.63;31.15;;;;;;;1.93;97.54;103468.38;2094748;28;36565;-76
2022/01/12 01:27:37;;;;;;;63.55;28.13;;;;;;;1.95;97.29;103472.00;2095826;28;20901;-75
2022/01/12 01:28:39;;;;;;;74.78;32.85;;;;;;;1.94;97.15;103464.91;2094523;28;44251;-75
2022/01/12 01:29:41;;;;;;;79.90;33.50;;;;;;;1.92;97.55;103462.22;2095617;28;21193;-76
2022/01/12 01:30:45;;;;;;;82.75;35.53;;;;;;;1.93;97.28;103471.94;2086308;28;43890;-76
2022/01/12 01:31:50;;;;;;;73.95;33.50;;;;;;;1.95;97.75;103477.31;2088258;28;20131;-76
2022/01/12 01:32:52;;;;;;;75.75;33.00;;;;;;;1.95;97.29;103479.94;2086902;28;23995;-76
2022/01/12 01:33:54;;;;;;;74.38;33.10;;;;;;;1.94;97.75;103475.47;2086795;28;35459;-76
2022/01/12 01:34:56;;;;;;;75.78;33.05;;;;;;;1.94;97.34;103470.19;2079458;28;21237;-76
2022/01/12 01:35:58;;;;;;;77.28;32.85;;;;;;;1.94;97.24;103476.41;2079987;28;38823;-76
2022/01/12 01:37:01;;;;;;;79.13;34.40;;;;;;;1.94;97.50;103478.09;2080998;28;20042;-76
2022/01/12 01:38:04;;;;;;;75.80;33.05;;;;;;;1.95;97.40;103472.00;2080661;28;20042;-76
2022/01/12 01:39:09;;;;;;;83.00;35.00;;;;;;;1.94;97.38;103471.13;2080638;28;20188;-76
2022/01/12 01:40:13;;;;;;;83.25;35.50;;;;;;;1.94;97.57;103478.09;2088297;28;43479;-76
2022/01/12 01:41:14;;;;;;;85.03;35.80;;;;;;;1.94;98.17;103471.13;2096301;28;38773;-76
2022/01/12 01:42:26;;;;;;;82.90;33.05;;;;;;;1.96;97.84;103484.41;2088435;28;28029;-76
2022/01/12 01:43:57;;;;;;;72.40;31.95;;;;;;;1.95;98.08;103478.19;2081226;28;27216;-76
2022/01/12 01:54:04;;;;;;;88.93;34.88;;;;;;;1.94;98.18;103479.03;2088318;28;20095;-76
2022/01/12 01:55:07;;;;;;;86.70;34.70;;;;;;;1.94;97.87;103475.47;2088602;28;20045;-76
2022/01/12 01:56:12;;;;;;;79.85;31.52;;;;;;;1.94;97.61;103476.41;2096507;28;20961;-76
2022/01/12 01:57:15;;;;;;;87.13;35.33;;;;;;;1.94;98.03;103480.75;2088122;28;20046;-76
2022/01/12 01:58:17;;;;;;;93.53;35.60;;;;;;;1.95;97.68;103493.16;2079930;28;20090;-76
2022/01/12 01:59:19;;;;;;;87.85;35.22;;;;;;;1.95;98.10;103494.03;2095899;28;20045;-76
2022/01/12 02:00:27;;;;;;;84.75;33.72;;;;;;;1.96;97.78;103498.53;2096111;28;20045;-76
2022/01/12 02:01:35;;;;;;;93.45;36.22;;;;;;;1.96;97.86;103500.25;2086630;28;20104;-76
2022/01/12 02:02:37;;;;;;;90.68;34.80;;;;;;;1.96;97.91;103497.63;2088322;28;20152;-76
2022/01/12 02:03:41;;;;;;;93.15;35.78;;;;;;;1.96;97.86;103506.44;2087968;28;28653;-76
2022/01/12 02:04:43;;;;;;;86.85;34.33;;;;;;;1.97;97.80;103504.69;2088153;28;36740;-76
2022/01/12 02:05:45;;;;;;;92.18;36.50;;;;;;;1.98;97.98;103509.19;2096637;28;20049;-76
2022/01/12 02:06:47;;;;;;;88.65;34.55;;;;;;;1.98;98.19;103504.78;2087854;28;35475;-76
2022/01/12 02:07:49;;;;;;;88.00;35.25;;;;;;;1.98;97.95;103504.78;2079612;28;38947;-76
2022/01/12 02:08:53;;;;;;;97.38;36.55;;;;;;;1.99;98.29;103505.69;2096227;28;20040;-75
2022/01/12 02:10:10;;;;;;;101.35;36.00;;;;;;;1.98;98.03;103511.81;2086295;28;20229;-76
2022/01/12 02:11:17;;;;;;;100.53;38.13;;;;;;;1.98;98.07;103507.44;2076957;28;20101;-76
2022/01/12 02:12:28;;;;;;;99.65;37.08;;;;;;;2.00;98.21;103508.41;2064581;28;20165;-76
2022/01/12 02:13:31;;;;;;;95.38;37.95;;;;;;;1.98;98.00;103499.50;2097035;28;20049;-76
2022/01/12 02:14:34;;;;;;;99.88;36.80;;;;;;;2.01;98.43;103501.38;2088387;28;29142;-77
2022/01/12 02:15:37;;;;;;;90.18;34.03;;;;;;;2.01;97.87;103496.09;2080029;28;42102;-77
2022/01/12 02:16:51;;;;;;;99.22;36.20;;;;;;;2.01;98.07;103504.97;2079403;28;44639;-77
2022/01/12 02:18:17;;;;;;;92.18;32.38;;;;;;;2.01;98.01;103504.97;2073878;28;20034;-76
2022/01/12 02:19:46;;;;;;;83.35;32.35;;;;;;;2.02;98.20;103511.16;2081095;28;20041;-76
2022/01/12 02:36:18;;;;;;;97.20;33.35;;;;;;;2.05;98.67;103538.66;2095767;28;43851;-76
2022/01/12 02:40:09;;;;;;;100.90;35.45;;;;;;;2.06;98.31;103539.53;2082225;28;46018;-76
2022/01/12 02:41:14;;;;;;;114.00;39.70;;;;;;;2.04;98.23;103546.50;2071781;28;42440;-76
2022/01/12 02:42:18;;;;;;;113.88;38.58;;;;;;;2.05;98.35;103550.97;2082297;28;20052;-76
2022/01/12 02:43:43;;;;;;;119.93;40.95;;;;;;;2.05;98.99;103548.31;2087896;28;45216;-76
2022/01/12 02:54:04;;;;;;;129.57;39.35;;;;;;;2.10;98.75;103568.88;2076028;28;20355;-76
2022/01/12 02:55:07;;;;;;;115.80;40.80;;;;;;;2.10;98.80;103566.22;2070752;28;42920;-77
2022/01/12 02:56:17;;;;;;;130.07;41.47;;;;;;;2.11;98.93;103572.41;2086468;28;31559;-76
2022/01/12 02:57:20;;;;;;;;;;;;;;;2.11;98.61;103564.50;2090365;28;20042;-77
2022/01/12 02:58:24;;;;;;;131.07;38.83;;;;;;;2.12;98.61;103566.31;2087990;28;19921;-77
2022/01/12 02:59:26;;;;;;;139.98;41.35;;;;;;;2.10;98.88;103568.88;2080758;28;20049;-77
2022/01/12 03:00:42;;;;;;;127.22;40.05;;;;;;;2.12;99.00;103573.31;2096445;28;20037;-76
2022/01/12 03:02:05;;;;;;;119.65;39.30;;;;;;;2.12;99.20;103575.97;2094515;28;20052;-76
2022/01/12 03:03:05;;;;;;;136.73;39.17;;;;;;;2.13;99.03;103578.69;2082629;28;20363;-76
2022/01/12 03:04:10;;;;;;;147.63;42.20;;;;;;;2.13;98.83;103577.78;2087639;28;45772;-77
2022/01/12 03:05:34;;;;;;;134.77;42.88;;;;;;;2.12;98.95;103587.47;2088651;28;34807;-77
2022/01/12 03:06:39;;;;;;;140.27;39.88;;;;;;;2.13;98.95;103588.38;2096696;28;20122;-77
2022/01/12 03:07:41;;;;;;;140.40;42.20;;;;;;;2.13;99.22;103591.91;2088456;28;20045;-77
2022/01/12 03:08:43;;;;;;;143.20;41.20;;;;;;;2.14;99.16;103572.59;2088586;28;20041;-77
2022/01/12 03:09:45;;;;;;;140.55;41.13;;;;;;;2.14;99.24;103584.91;2087616;28;34784;-76
2022/01/12 03:10:47;;;;;;;143.35;41.92;;;;;;;2.14;99.12;103585.81;2087913;28;20891;-77
2022/01/12 03:11:48;;;;;;;154.90;42.65;;;;;;;2.15;99.15;103581.41;2095862;28;42268;-77
2022/01/12 03:12:52;;;;;;;140.25;40.72;;;;;;;2.17;99.14;103580.69;2088019;28;20839;-77
2022/01/12 03:13:54;;;;;;;139.68;40.58;;;;;;;2.17;99.21;103591.28;2087546;28;47234;-77
2022/01/12 03:14:56;;;;;;;138.55;40.28;;;;;;;2.18;99.28;103585.13;2088121;28;20053;-77
2022/01/12 03:15:58;;;;;;;136.80;40.83;;;;;;;2.16;98.76;103577.97;2088041;28;39121;-77
2022/01/12 03:17:00;;;;;;;135.35;40.78;;;;;;;2.18;99.35;103581.59;2104292;28;20036;-77
2022/01/12 03:18:04;;;;;;;133.43;39.65;;;;;;;2.17;99.03;103579.75;2087979;28;20041;-77
2022/01/12 03:19:06;;;;;;;130.32;40.33;;;;;;;2.18;98.98;103581.59;2087564;28;45950;-77
2022/01/12 03:20:09;;;;;;;159.68;42.03;;;;;;;2.17;99.02;103578.06;2096291;28;20037;-77
2022/01/12 03:21:14;;;;;;;154.57;41.90;;;;;;;2.17;98.76;103572.78;2096155;28;20041;-77
2022/01/12 03:22:16;;;;;;;144.82;42.80;;;;;;;2.19;98.98;103576.41;2088214;28;20934;-77
2022/01/12 03:23:18;;;;;;;127.13;38.35;;;;;;;2.19;99.47;103572.81;2087962;28;20104;-77
2022/01/12 03:24:20;;;;;;;129.20;39.97;;;;;;;2.19;99.21;103571.13;2096690;28;20041;-77
2022/01/12 03:25:23;;;;;;;140.75;41.03;;;;;;;2.20;98.97;103569.38;2088379;28;20173;-77
2022/01/12 03:26:29;;;;;;;135.43;39.95;;;;;;;2.19;99.01;103572.81;2087540;28;20052;-77
2022/01/12 03:27:31;;;;;;;122.35;35.80;;;;;;;2.20;99.25;103572.00;2088501;28;20171;-77
2022/01/12 03:28:33;;;;;;;146.88;40.45;;;;;;;2.21;98.94;103566.81;2079183;28;40447;-77
2022/01/12 03:29:35;;;;;;;139.85;39.72;;;;;;;2.20;99.48;103557.06;2088599;28;20042;-77
2022/01/12 03:30:48;;;;;;;141.70;39.47;;;;;;;2.21;99.13;103553.59;2088650;28;20922;-77
2022/01/12 03:31:49;;;;;;;144.93;42.10;;;;;;;2.22;99.13;103552.75;2089563;28;27714;-77
2022/01/12 03:33:06;;;;;;;143.18;40.13;;;;;;;2.22;99.30;103550.09;2098072;28;20045;-77
2022/01/12 03:34:20;;;;;;;138.63;39.30;;;;;;;2.22;99.24;103551.84;2094262;28;20054;-77
2022/01/12 03:35:35;;;;;;;133.55;38.65;;;;;;;2.22;99.23;103557.13;2090101;28;20832;-77
2022/01/12 03:37:05;;;;;;;134.43;39.22;;;;;;;2.22;99.33;103552.75;2095891;28;43789;-77
2022/01/12 03:38:20;;;;;;;150.07;40.20;;;;;;;2.23;99.52;103551.94;2096168;28;20886;-77
2022/01/12 03:39:24;;;;;;;135.95;38.67;;;;;;;2.24;99.12;103550.19;2096353;28;20045;-77
2022/01/12 03:40:31;;;;;;;137.32;39.53;;;;;;;2.23;98.97;103541.38;2096494;28;20041;-77
2022/01/12 03:41:35;;;;;;;147.07;40.45;;;;;;;2.24;98.82;103534.34;2096524;28;20823;-77
2022/01/12 03:42:37;;;;;;;149.40;40.03;;;;;;;2.22;99.34;103523.69;2088254;28;20179;-77
2022/01/12 03:43:40;;;;;;;144.05;39.35;;;;;;;2.23;98.85;103522.88;2096802;28;20045;-77
2022/01/12 03:44:42;;;;;;;155.63;40.35;;;;;;;2.20;99.03;103517.41;2103717;28;45110;-77
2022/01/12 03:45:48;;;;;;;119.60;34.13;;;;;;;2.23;99.34;103520.22;2088028;28;39137;-77
2022/01/12 03:46:52;;;;;;;155.90;40.97;;;;;;;2.23;99.43;103517.59;2096108;28;20037;-77
2022/01/12 03:47:54;;;;;;;139.27;41.72;;;;;;;2.23;98.81;103524.63;2087529;28;29830;-77
2022/01/12 03:48:56;;;;;;;127.10;37.92;;;;;;;2.23;99.43;103524.63;2088516;28;20076;-77
2022/01/12 03:49:59;;;;;;;132.82;38.55;;;;;;;2.24;99.00;103522.06;2088274;28;20044;-77
2022/01/12 03:51:01;;;;;;;143.32;38.03;;;;;;;2.24;99.30;103519.41;2087944;28;20060;-77
2022/01/12 03:52:04;;;;;;;125.38;34.17;;;;;;;2.25;99.12;103520.31;2071858;28;21008;-77
2022/01/12 03:53:06;;;;;;;151.70;40.67;;;;;;;2.25;98.91;103523.84;2080621;28;20099;-77
2022/01/12 03:54:09;;;;;;;124.63;36.80;;;;;;;2.26;99.68;103523.03;2096548;28;31128;-77
2022/01/12 03:55:11;;;;;;;165.32;42.58;;;;;;;2.27;99.51;103526.56;2088794;28;20119;-77
2022/01/12 03:56:13;;;;;;;147.77;38.05;;;;;;;2.27;99.21;103529.22;2089013;28;20037;-77
2022/01/12 03:57:15;;;;;;;153.93;41.65;;;;;;;2.26;99.09;103532.69;2087636;28;29996;-77
2022/01/12 03:58:17;;;;;;;153.48;41.63;;;;;;;2.26;99.19;103535.31;2087771;28;42941;-77
2022/01/12 03:59:19;;;;;;;158.32;41.40;;;;;;;2.27;99.28;103534.50;2087180;28;20069;-77
2022/01/12 04:00:21;;;;;;;133.13;36.92;;;;;;;2.27;98.92;103535.41;2087169;28;45144;-77
2022/01/12 04:01:25;;;;;;;145.93;39.78;;;;;;;2.27;99.16;103534.50;2088236;28;35523;-77
2022/01/12 04:02:28;;;;;;;154.90;41.78;;;;;;;2.27;99.27;103539.78;2087766;28;20107;-77
2022/01/12 04:03:36;;;;;;;142.82;37.25;;;;;;;2.27;99.06;103545.97;2087954;28;20041;-77
2022/01/12 04:04:53;;;;;;;148.95;38.42;;;;;;;2.28;99.41;103555.75;2095492;28;21892;-77
2022/01/12 04:08:37;;;;;;;168.38;40.40;;;;;;;2.29;99.02;103554.91;2093329;28;41619;-77
2022/01/12 04:09:38;;;;;;;217.00;39.55;;;;;;;2.27;99.18;103553.91;2087865;28;45984;-77
2022/01/12 04:10:41;;;;;;;165.60;37.95;;;;;;;2.28;99.32;103553.09;2096234;28;20033;-77
2022/01/12 04:11:43;;;;;;;182.88;44.05;;;;;;;2.28;99.06;103553.09;2087732;28;20132;-77
2022/01/12 04:12:45;;;;;;;174.25;41.42;;;;;;;2.28;99.24;103549.56;2079314;28;20038;-77
2022/01/12 04:13:49;;;;;;;197.98;41.55;;;;;;;2.28;99.10;103545.16;2088019;28;20050;-77
2022/01/12 04:14:51;;;;;;;175.45;39.80;;;;;;;2.27;99.05;103548.63;2096351;28;20084;-77
2022/01/12 04:16:01;;;;;;;183.35;41.67;;;;;;;2.28;99.58;103552.19;2087202;28;30118;-78
2022/01/12 04:17:03;;;;;;;191.30;41.08;;;;;;;2.29;98.98;103548.72;2092576;28;20163;-77
2022/01/12 04:18:08;;;;;;;178.27;41.08;;;;;;;2.28;99.42;103542.53;2103866;28;20067;-77
2022/01/12 04:19:10;;;;;;;170.52;38.75;;;;;;;2.29;99.24;103548.72;2095858;28;20142;-77
2022/01/12 04:20:11;;;;;;;171.38;40.38;;;;;;;2.29;98.95;103541.69;2095720;28;47772;-77
2022/01/12 04:21:13;;;;;;;176.65;42.25;;;;;;;2.29;99.57;103554.00;2095081;28;43976;-77
2022/01/12 04:23:38;;;;;;;170.80;40.38;;;;;;;2.28;99.40;103558.38;2082785;28;20823;-77
2022/01/12 04:24:40;;;;;;;160.25;40.75;;;;;;;2.29;99.52;103562.84;2095041;28;46075;-77
2022/01/12 04:25:57;;;;;;;164.52;40.20;;;;;;;2.31;99.38;103564.66;2096047;28;20041;-77
2022/01/12 04:27:00;;;;;;;171.30;39.78;;;;;;;2.30;99.26;103566.41;2095635;28;20037;-76
2022/01/12 04:28:02;;;;;;;160.68;41.83;;;;;;;2.28;99.55;103561.03;2095595;28;46513;-77
2022/01/12 04:29:04;;;;;;;156.60;41.00;;;;;;;2.29;99.11;103562.84;2095836;28;20033;-77
2022/01/12 04:30:10;;;;;;;171.95;41.58;;;;;;;2.31;99.58;103564.66;2096652;28;20036;-77
2022/01/12 04:31:12;;;;;;;144.73;36.42;;;;;;;2.31;99.24;103562.91;2096141;28;42383;-77
2022/01/12 04:32:14;;;;;;;169.63;41.25;;;;;;;2.31;99.35;103552.34;2096158;28;20076;-77
2022/01/12 04:33:18;;;;;;;142.82;39.13;;;;;;;2.31;99.16;103551.44;2096288;28;20192;-77
2022/01/12 04:34:20;;;;;;;171.10;40.10;;;;;;;2.31;99.19;103552.34;2096513;28;20788;-77
2022/01/12 04:35:25;;;;;;;177.68;42.20;;;;;;;2.30;99.57;103553.19;2095398;28;46110;-77
2022/01/12 04:36:27;;;;;;;157.15;40.25;;;;;;;2.29;99.59;103552.25;2096067;28;20167;-77
2022/01/12 04:37:29;;;;;;;134.02;39.95;;;;;;;2.31;99.11;103556.72;2096125;28;20997;-76
2022/01/12 04:38:34;;;;;;;167.80;41.25;;;;;;;2.29;99.53;103562.84;2095834;28;27304;-77
2022/01/12 04:39:39;;;;;;;155.90;38.97;;;;;;;2.31;99.08;103562.00;2095422;28;20234;-77
2022/01/12 04:40:42;;;;;;;180.75;39.63;;;;;;;2.30;99.16;103558.47;2096520;28;20045;-77
2022/01/12 04:41:44;;;;;;;161.98;42.33;;;;;;;2.32;99.45;103569.13;2095301;28;20049;-77
2022/01/12 04:42:47;;;;;;;187.23;42.25;;;;;;;2.30;99.00;103563.75;2079712;28;20038;-77
2022/01/12 04:43:49;;;;;;;175.57;41.65;;;;;;;2.29;99.05;103561.94;2088133;28;20087;-77
2022/01/12 04:44:59;;;;;;;136.70;38.63;;;;;;;2.27;99.39;103567.13;2087641;28;45165;-76
2022/01/12 04:47:15;;;;;;;169.98;39.47;;;;;;;2.29;99.46;103569.84;2095793;28;20949;-76
2022/01/12 04:49:47;;;;;;;175.50;38.15;;;;;;;2.29;98.94;103573.41;2087737;28;26662;-77
2022/01/12 04:50:49;;;;;;;163.50;40.95;;;;;;;2.27;99.28;103567.13;2099571;28;20037;-77
2022/01/12 04:51:51;;;;;;;193.63;39.35;;;;;;;2.30;99.19;103571.69;2092457;28;43371;-77
2022/01/12 04:52:56;;;;;;;147.77;38.42;;;;;;;2.32;99.57;103572.69;2087408;28;42730;-77
2022/01/12 04:53:58;;;;;;;168.18;41.92;;;;;;;2.32;99.57;103574.44;2096364;28;20131;-77
2022/01/12 04:55:00;;;;;;;151.00;39.35;;;;;;;2.32;99.17;103566.50;2095463;28;20048;-77
2022/01/12 04:56:02;;;;;;;157.43;37.05;;;;;;;2.32;99.23;103564.75;2096190;28;20041;-77
2022/01/12 04:57:04;;;;;;;156.00;37.45;;;;;;;2.33;99.11;103560.34;2094610;28;43417;-77
2022/01/12 04:58:10;;;;;;;193.27;43.95;;;;;;;2.33;99.64;103568.28;2096055;28;20163;-77
2022/01/12 04:59:12;;;;;;;141.40;39.35;;;;;;;2.33;99.28;103571.84;2095879;28;31261;-77
2022/01/12 05:00:17;;;;;;;150.18;41.58;;;;;;;2.32;99.53;103574.44;2095051;28;44178;-76
2022/01/12 05:01:25;;;;;;;174.73;42.13;;;;;;;2.32;99.44;103574.44;2096062;28;20049;-77
2022/01/12 05:06:57;;;;;;;150.43;37.38;;;;;;;2.33;99.52;103568.28;2062468;28;20055;-77
2022/01/12 05:08:13;;;;;;;152.85;38.45;;;;;;;2.33;99.62;103565.66;2063817;28;32005;-77
2022/01/12 05:09:30;;;;;;;139.80;36.63;;;;;;;2.33;98.99;103565.66;2083737;28;20052;-77
2022/01/12 05:13:12;;;;;;;;;;;;;;;2.32;99.55;103571.78;2097918;28;20118;-77
2022/01/12 05:14:15;;;;;;;127.90;33.00;;;;;;;2.32;99.35;103569.13;2105297;28;20821;-77
2022/01/12 05:15:25;;;;;;;161.55;42.83;;;;;;;2.32;99.21;103569.13;2105788;28;21367;-77
2022/01/12 05:16:27;;;;;;;179.65;41.85;;;;;;;2.31;99.30;103570.84;2096111;28;21113;-77
2022/01/12 05:17:29;;;;;;;164.98;40.05;;;;;;;2.30;99.50;103566.41;2097590;28;20696;-77
2022/01/12 05:18:34;;;;;;;170.18;42.75;;;;;;;2.31;99.29;103569.94;2105770;28;20167;-77
2022/01/12 05:19:36;;;;;;;160.52;42.00;;;;;;;2.30;99.25;103566.41;2097715;28;20088;-77
2022/01/12 05:20:38;;;;;;;172.25;43.95;;;;;;;2.29;99.34;103565.47;2097529;28;20033;-77
2022/01/12 05:21:40;;;;;;;136.70;38.65;;;;;;;2.30;99.70;103566.41;2088643;28;30394;-76
2022/01/12 05:22:41;;;;;;;162.88;41.08;;;;;;;2.31;99.15;103568.19;2088652;28;36735;-77
2022/01/12 05:23:44;;;;;;;197.85;43.47;;;;;;;2.30;99.55;103566.41;2097307;28;20045;-77
2022/01/12 05:24:45;;;;;;;163.50;43.90;;;;;;;2.32;99.10;103570.03;2096688;28;20114;-77
2022/01/12 05:26:01;;;;;;;193.23;43.88;;;;;;;2.28;99.03;103574.25;2089150;28;20038;-75
2022/01/12 05:27:03;;;;;;;163.63;39.47;;;;;;;2.28;99.31;103568.97;2080420;28;20062;-77
2022/01/12 05:28:05;;;;;;;191.63;43.75;;;;;;;2.25;99.73;103575.81;2088726;28;20084;-77
2022/01/12 05:29:08;;;;;;;175.55;42.28;;;;;;;2.29;99.50;103577.78;2081234;28;20037;-77
2022/01/12 05:30:12;;;;;;;175.98;42.85;;;;;;;2.27;99.39;103587.38;2089369;28;21085;-77
2022/01/12 05:31:17;;;;;;;160.25;38.60;;;;;;;2.26;99.26;103589.13;2096946;28;21063;-77
2022/01/12 05:32:19;;;;;;;179.65;42.50;;;;;;;2.26;99.45;103594.41;2088869;28;20053;-77
2022/01/12 05:33:24;;;;;;;181.00;39.33;;;;;;;2.27;99.30;103595.31;2097670;28;20049;-77
2022/01/12 05:34:28;;;;;;;177.57;39.97;;;;;;;2.27;99.48;103598.84;2096875;28;20883;-77
2022/01/12 05:35:34;;;;;;;159.98;39.92;;;;;;;2.27;99.66;103601.50;2089572;28;20038;-77
2022/01/12 05:36:38;;;;;;;194.18;40.97;;;;;;;2.25;99.30;103595.22;2096160;28;20033;-77
2022/01/12 05:37:41;;;;;;;202.80;43.60;;;;;;;2.28;99.54;103598.03;2085957;28;20105;-77
2022/01/12 05:38:44;;;;;;;173.88;41.05;;;;;;;2.28;99.55;103603.31;2087911;28;20038;-77
2022/01/12 05:39:46;;;;;;;211.70;43.05;;;;;;;2.28;99.61;103605.97;2088956;28;20150;-77
2022/01/12 05:41:05;;;;;;;213.65;41.45;;;;;;;2.28;99.68;103592.75;2080239;28;20038;-77
2022/01/12 05:42:07;;;;;;;148.93;40.45;;;;;;;2.29;99.50;103597.19;2072456;28;26615;-77
2022/01/12 05:43:13;;;;;;;187.73;39.88;;;;;;;2.29;99.44;103594.56;2088176;28;21186;-77
2022/01/12 05:44:14;;;;;;;199.90;39.10;;;;;;;2.28;99.49;103599.78;2087577;28;45624;-77
2022/01/12 05:45:19;;;;;;;170.15;39.03;;;;;;;2.28;99.51;103602.44;2080756;28;20176;-77
2022/01/12 05:46:26;;;;;;;181.73;40.67;;;;;;;2.25;99.10;103603.16;2081024;28;20155;-77
2022/01/12 05:50:22;;;;;;;206.13;40.25;;;;;;;2.28;99.86;103611.25;2093704;28;20049;-77
2022/01/12 05:51:25;;;;;;;204.02;37.75;;;;;;;2.29;99.76;103610.41;2080389;28;21047;-77
2022/01/12 05:52:27;;;;;;;177.38;39.13;;;;;;;2.29;99.32;103602.47;2072608;28;35517;-77
2022/01/12 05:53:28;;;;;;;151.75;37.25;;;;;;;2.28;99.57;103603.31;2088437;28;20056;-76
2022/01/12 05:54:30;;;;;;;152.05;35.67;;;;;;;2.29;99.64;103607.78;2096555;28;26388;-77
2022/01/12 05:55:32;;;;;;;196.60;38.85;;;;;;;2.31;99.31;103604.31;2080491;28;20157;-77
2022/01/12 05:56:34;;;;;;;147.75;37.85;;;;;;;2.31;99.29;103601.66;2072044;28;21903;-77
2022/01/12 05:57:36;;;;;;;182.65;42.83;;;;;;;2.32;99.69;103600.84;2072088;28;21002;-77
2022/01/12 05:58:38;;;;;;;169.85;39.05;;;;;;;2.32;99.32;103603.50;2072340;28;20160;-77
2022/01/12 05:59:40;;;;;;;156.88;38.92;;;;;;;2.31;99.63;103609.59;2092901;28;31967;-77
2022/01/12 06:00:42;;;;;;;162.05;40.85;;;;;;;2.32;99.73;103609.69;2096151;28;20053;-77
2022/01/12 06:01:44;;;;;;;194.60;42.08;;;;;;;2.32;99.50;103612.34;2094444;28;20289;-77
2022/01/12 06:02:47;;;;;;;180.95;41.33;;;;;;;2.32;99.39;103616.72;2099268;28;21387;-77
2022/01/12 06:03:51;;;;;;;182.38;43.97;;;;;;;2.32;99.49;103617.63;2088716;28;20035;-76